Tryon, Nebraska
Current Conditions -  °F | °C
As of 8:53 PM on Tuesday 25 Nov 2014 (Local Time) from KLBF Reporting Station
Overcast Overcast  
Wind Chill: 33°   Ceiling: 3200
Heat Index: 40°   Visibility: 10mi
Dew Point: 31°   Wind: 12mph
Humidity: 70%   Direction: 300°WNW
Pressure: 29.9"   Gusts: NA
Location:  41.55°N, 100.96°W
Report Text: KLBF 260253Z AUTO 30010KT 10SM BKN032 OVC100 04/M01 A2990 RMK AO2 SLP148 60000 T00441006 51022 $
Loading
Personal Weather Stations






























Interactive Weather Map New forecast layout! Learn more

10-Day Weather Forecast

Advertisements
Track Severe Weather on mobile